Seafrance Rodin — FOBQ — position and weather

sailwx.info

Track history (hours):
 
Tides and Currents Weather Stations Pressure Air Temp Water Temp Dewpoint Dewpoint Depression Visibility Wind Speed Wind Dir Waves Ship Positions

Seafrance Rodin

Operator: SeaFrance

Last reported at 2020-Jul-14 07:00 UTC. Time now 2020-Jul-14 12:04 UTC.
Position N 50°58' E 001°51'.

Length 185 m; draft 5.8 m.

Type: Ship (hazmat cat C). MMSI: 227022800.

Date/timePositionNaut miles runAvg speedWind from/ knotsBaromVisibWave heightAir tempDewpointWater temp
2020-Jul-14 07:00N 50°58' E 001°51'0 0.0
2020-Jul-14 06:30N 50°58' E 001°51'1812.2
2020-Jul-14 05:00N 51°05' E 001°25'2 1.5
2020-Jul-14 03:30N 51°07' E 001°22'1918.8
2020-Jul-14 02:30N 50°58' E 001°49'2 1.6
2020-Jul-14 01:31N 50°58' E 001°51'10 9.7
2020-Jul-14 00:30N 51°01' E 001°36'11 1.8
2020-Jul-13 18:01N 51°07' E 001°21'1616.4
2020-Jul-13 17:00N 50°59' E 001°43'17 4.8
2020-Jul-13 13:29N 51°07' E 001°20'4 7.7
2020-Jul-13 13:00N 51°07' E 001°26'9 1.7
2020-Jul-13 08:00N 51°02' E 001°37'1 0.2
2020-Jul-13 03:00N 51°03' E 001°37'10 2.2
2020-Jul-12 22:31N 50°58' E 001°51'0 0.0
2020-Jul-12 22:01N 50°58' E 001°51'19 6.3
2020-Jul-12 19:00N 51°06' E 001°24'3 4.7
2020-Jul-12 18:26N 51°07' E 001°20'2 0.6
2020-Jul-12 14:31N 51°06' E 001°23'2 2.1
2020-Jul-12 13:30N 51°07' E 001°20'1717.2
2020-Jul-12 12:30N 50°59' E 001°44'5 3.3
2020-Jul-12 11:01N 50°58' E 001°52'0 0.0
2020-Jul-12 07:30N 50°58' E 001°52'0 0.0
2020-Jul-12 05:00N 50°58' E 001°52'0 0.0
2020-Jul-12 01:30N 50°58' E 001°52'1610.9
2020-Jul-12 00:00N 51°04' E 001°27'4 2.6
2020-Jul-11 22:30N 51°07' E 001°24'1912.9
2020-Jul-11 21:00N 50°58' E 001°51'2110.3
2020-Jul-11 19:00N 51°07' E 001°21'19 5.5
2020-Jul-11 15:30N 50°58' E 001°49'2010.0
2020-Jul-11 13:30N 51°07' E 001°20'21 8.2
2020-Jul-11 11:00N 50°58' E 001°50'2110.3
2020-Jul-11 08:59N 51°07' E 001°20'1211.7
2020-Jul-11 08:00N 51°02' E 001°36'8 1.7
2020-Jul-11 03:30N 51°07' E 001°27'817.0
2020-Jul-11 03:00N 51°02' E 001°38'714.7
2020-Jul-11 02:30N 50°58' E 001°48'2 3.7
2020-Jul-11 02:00N 50°58' E 001°51'1 0.9
2020-Jul-11 01:01N 50°58' E 001°50'18 7.3
2020-Jul-10 22:30N 51°07' E 001°24'8 2.6
2020-Jul-10 19:30N 51°01' E 001°33'816.3
2020-Jul-10 19:00N 51°06' E 001°23'20 6.5
2020-Jul-10 16:00N 50°58' E 001°51'1010.1
2020-Jul-10 15:00N 50°60' E 001°35'12 8.0
2020-Jul-10 13:30N 51°07' E 001°20'2114.5
2020-Jul-10 12:01N 50°58' E 001°51'1 0.7
2020-Jul-10 11:01N 50°58' E 001°50'16 6.3
2020-Jul-10 08:31N 51°06' E 001°28'17 8.3
2020-Jul-10 06:30N 50°58' E 001°51'4 9.0
2020-Jul-10 06:01N 50°58' E 001°44'815.1
2020-Jul-10 05:31N 51°01' E 001°33'9 3.1
2020-Jul-10 02:30N 50°58' E 001°47'3 5.2
2020-Jul-10 02:00N 50°58' E 001°51'0 0.0
2020-Jul-10 01:30N 50°58' E 001°51'1 2.6
2020-Jul-10 01:00N 50°58' E 001°49'917.8
2020-Jul-10 00:30N 50°59' E 001°35'4 1.4
2020-Jul-09 22:01N 51°00' E 001°40'2 1.2
2020-Jul-09 20:01N 50°58' E 001°42'6 1.5
2020-Jul-09 16:00N 50°58' E 001°51'1414.3
2020-Jul-09 15:00N 51°03' E 001°30'7 6.4
2020-Jul-09 13:51N 51°07' E 001°20'2014.8
2020-Jul-09 12:30N 50°58' E 001°48'2 3.7
2020-Jul-09 12:00N 50°58' E 001°51'0 0.0
2020-Jul-09 11:30N 50°58' E 001°51'4 4.2
2020-Jul-09 10:30N 50°58' E 001°44'1811.9
2020-Jul-09 09:00N 51°07' E 001°20'0 0.2
2020-Jul-09 08:30N 51°07' E 001°20'2114.4
2020-Jul-09 07:01N 50°58' E 001°51'1 0.6
2020-Jul-09 06:00N 50°58' E 001°50'7 2.4
2020-Jul-09 03:00N 51°01' E 001°40'2 0.3
2020-Jul-08 22:01N 50°60' E 001°41'6 4.3
2020-Jul-08 20:30N 50°58' E 001°51'13 4.4
2020-Jul-08 17:30N 51°04' E 001°33'1020.1
2020-Jul-08 17:00N 50°58' E 001°45'3 2.2
2020-Jul-08 15:30N 50°58' E 001°50'2114.0
2020-Jul-08 14:00N 51°07' E 001°20'0 0.0
2020-Jul-08 13:29N 51°07' E 001°20'714.8
2020-Jul-08 13:01N 51°05' E 001°30'1020.6
2020-Jul-08 12:30N 50°59' E 001°44'5 3.0
2020-Jul-08 11:00N 50°58' E 001°51'10 1.7
2020-Jul-08 05:30N 50°60' E 001°36'3 1.0
2020-Jul-08 03:01N 51°02' E 001°38'12 3.1
2020-Jul-07 22:58N 51°07' E 001°20'1212.6
2020-Jul-07 22:01N 51°03' E 001°38'9 6.2
2020-Jul-07 20:30N 50°58' E 001°51'2210.8
2020-Jul-07 18:30N 51°07' E 001°20'22 8.6
2020-Jul-07 16:00N 50°58' E 001°51'10 9.5
2020-Jul-07 15:00N 51°00' E 001°36'1212.2
2020-Jul-07 14:00N 51°07' E 001°20'7 7.1
2020-Jul-07 13:00N 51°06' E 001°31'15 9.9
2020-Jul-07 11:30N 50°58' E 001°51'0 0.0
2020-Jul-07 11:00N 50°58' E 001°51'3 0.8
2020-Jul-07 07:30N 50°58' E 001°47'9 4.4
2020-Jul-07 05:30N 51°02' E 001°34'917.5
2020-Jul-07 05:00N 51°07' E 001°22'3 2.2
2020-Jul-07 03:30N 51°06' E 001°27'714.7
2020-Jul-07 03:00N 51°02' E 001°37'8 2.5
2020-Jul-07 00:01N 51°05' E 001°26'1 0.7
2020-Jul-06 22:30N 51°07' E 001°26'2 0.5
2020-Jul-06 19:01N 51°06' E 001°24'3 6.0
2020-Jul-06 18:31N 51°07' E 001°20'6 6.4
2020-Jul-06 17:30N 51°05' E 001°30'816.7
2020-Jul-06 17:00N 51°00' E 001°41'7 1.3
2020-Jul-06 12:00N 50°58' E 001°51'0 0.2
2020-Jul-06 11:00N 50°58' E 001°51'1515.3
2020-Jul-06 10:01N 51°04' E 001°29'612.4
2020-Jul-06 09:30N 51°07' E 001°20'8 8.3
2020-Jul-06 08:31N 51°04' E 001°32'1020.3
2020-Jul-06 08:00N 50°58' E 001°45'11 3.2
2020-Jul-06 04:31N 51°02' E 001°29'3 2.0
2020-Jul-06 03:00N 51°05' E 001°28'1616.2
2020-Jul-06 02:00N 50°58' E 001°51'0 0.0
2020-Jul-06 01:30N 50°58' E 001°51'0 0.0
2020-Jul-05 22:00N 50°58' E 001°51'0 0.0
2020-Jul-05 20:00N 50°58' E 001°51'0 0.0
2020-Jul-05 16:00N 50°58' E 001°51'0 0.0
2020-Jul-05 15:31N 50°58' E 001°51'16 5.5
2020-Jul-05 12:31N 51°06' E 001°28'17 8.4
2020-Jul-05 10:30N 50°58' E 001°52'0 0.0
2020-Jul-05 05:30N 50°58' E 001°52'0 0.0
2020-Jul-05 04:00N 50°58' E 001°52'0 0.0
2020-Jul-05 03:00N 50°58' E 001°52'0 0.0
2020-Jul-05 02:00N 50°58' E 001°52'22 6.2
2020-Jul-04 22:28N 51°07' E 001°20'22 8.9
2020-Jul-04 20:00N 50°58' E 001°52'1 2.2
2020-Jul-04 19:30N 50°58' E 001°50'1716.8
2020-Jul-04 18:31N 51°05' E 001°26'1 0.2
2020-Jul-04 12:31N 51°07' E 001°27'1616.5
2020-Jul-04 11:30N 50°58' E 001°50'  
Track history (hours):
 
Tides and Currents Weather Stations Pressure Air Temp Water Temp Dewpoint Dewpoint Depression Visibility Wind Speed Wind Dir Waves Ship Positions

Seafrance Rodin

Operator: SeaFrance

Last reported at 2020-Jul-14 07:00 UTC. Time now 2020-Jul-14 12:04 UTC.
Position N 50°58' E 001°51'.

Length 185 m; draft 5.8 m.

Type: Ship (hazmat cat C). MMSI: 227022800.

Date/timePositionNaut miles runAvg speedWind from/ knotsBaromVisibWave heightAir tempDewpointWater temp
2020-Jul-14 07:00N 50°58' E 001°51'0 0.0
2020-Jul-14 06:30N 50°58' E 001°51'1812.2
2020-Jul-14 05:00N 51°05' E 001°25'2 1.5
2020-Jul-14 03:30N 51°07' E 001°22'1918.8
2020-Jul-14 02:30N 50°58' E 001°49'2 1.6
2020-Jul-14 01:31N 50°58' E 001°51'10 9.7
2020-Jul-14 00:30N 51°01' E 001°36'11 1.8
2020-Jul-13 18:01N 51°07' E 001°21'1616.4
2020-Jul-13 17:00N 50°59' E 001°43'17 4.8
2020-Jul-13 13:29N 51°07' E 001°20'4 7.7
2020-Jul-13 13:00N 51°07' E 001°26'9 1.7
2020-Jul-13 08:00N 51°02' E 001°37'1 0.2
2020-Jul-13 03:00N 51°03' E 001°37'10 2.2
2020-Jul-12 22:31N 50°58' E 001°51'0 0.0
2020-Jul-12 22:01N 50°58' E 001°51'19 6.3
2020-Jul-12 19:00N 51°06' E 001°24'3 4.7
2020-Jul-12 18:26N 51°07' E 001°20'2 0.6
2020-Jul-12 14:31N 51°06' E 001°23'2 2.1
2020-Jul-12 13:30N 51°07' E 001°20'1717.2
2020-Jul-12 12:30N 50°59' E 001°44'5 3.3
2020-Jul-12 11:01N 50°58' E 001°52'0 0.0
2020-Jul-12 07:30N 50°58' E 001°52'0 0.0
2020-Jul-12 05:00N 50°58' E 001°52'0 0.0
2020-Jul-12 01:30N 50°58' E 001°52'1610.9
2020-Jul-12 00:00N 51°04' E 001°27'4 2.6
2020-Jul-11 22:30N 51°07' E 001°24'1912.9
2020-Jul-11 21:00N 50°58' E 001°51'2110.3
2020-Jul-11 19:00N 51°07' E 001°21'19 5.5
2020-Jul-11 15:30N 50°58' E 001°49'2010.0
2020-Jul-11 13:30N 51°07' E 001°20'21 8.2
2020-Jul-11 11:00N 50°58' E 001°50'2110.3
2020-Jul-11 08:59N 51°07' E 001°20'1211.7
2020-Jul-11 08:00N 51°02' E 001°36'8 1.7
2020-Jul-11 03:30N 51°07' E 001°27'817.0
2020-Jul-11 03:00N 51°02' E 001°38'714.7
2020-Jul-11 02:30N 50°58' E 001°48'2 3.7
2020-Jul-11 02:00N 50°58' E 001°51'1 0.9
2020-Jul-11 01:01N 50°58' E 001°50'18 7.3
2020-Jul-10 22:30N 51°07' E 001°24'8 2.6
2020-Jul-10 19:30N 51°01' E 001°33'816.3
2020-Jul-10 19:00N 51°06' E 001°23'20 6.5
2020-Jul-10 16:00N 50°58' E 001°51'1010.1
2020-Jul-10 15:00N 50°60' E 001°35'12 8.0
2020-Jul-10 13:30N 51°07' E 001°20'2114.5
2020-Jul-10 12:01N 50°58' E 001°51'1 0.7
2020-Jul-10 11:01N 50°58' E 001°50'16 6.3
2020-Jul-10 08:31N 51°06' E 001°28'17 8.3
2020-Jul-10 06:30N 50°58' E 001°51'4 9.0
2020-Jul-10 06:01N 50°58' E 001°44'815.1
2020-Jul-10 05:31N 51°01' E 001°33'9 3.1
2020-Jul-10 02:30N 50°58' E 001°47'3 5.2
2020-Jul-10 02:00N 50°58' E 001°51'0 0.0
2020-Jul-10 01:30N 50°58' E 001°51'1 2.6
2020-Jul-10 01:00N 50°58' E 001°49'917.8
2020-Jul-10 00:30N 50°59' E 001°35'4 1.4
2020-Jul-09 22:01N 51°00' E 001°40'2 1.2
2020-Jul-09 20:01N 50°58' E 001°42'6 1.5
2020-Jul-09 16:00N 50°58' E 001°51'1414.3
2020-Jul-09 15:00N 51°03' E 001°30'7 6.4
2020-Jul-09 13:51N 51°07' E 001°20'2014.8
2020-Jul-09 12:30N 50°58' E 001°48'2 3.7
2020-Jul-09 12:00N 50°58' E 001°51'0 0.0
2020-Jul-09 11:30N 50°58' E 001°51'4 4.2
2020-Jul-09 10:30N 50°58' E 001°44'1811.9
2020-Jul-09 09:00N 51°07' E 001°20'0 0.2
2020-Jul-09 08:30N 51°07' E 001°20'2114.4
2020-Jul-09 07:01N 50°58' E 001°51'1 0.6
2020-Jul-09 06:00N 50°58' E 001°50'7 2.4
2020-Jul-09 03:00N 51°01' E 001°40'2 0.3
2020-Jul-08 22:01N 50°60' E 001°41'6 4.3
2020-Jul-08 20:30N 50°58' E 001°51'13 4.4
2020-Jul-08 17:30N 51°04' E 001°33'1020.1
2020-Jul-08 17:00N 50°58' E 001°45'3 2.2
2020-Jul-08 15:30N 50°58' E 001°50'2114.0
2020-Jul-08 14:00N 51°07' E 001°20'0 0.0
2020-Jul-08 13:29N 51°07' E 001°20'714.8
2020-Jul-08 13:01N 51°05' E 001°30'1020.6
2020-Jul-08 12:30N 50°59' E 001°44'5 3.0
2020-Jul-08 11:00N 50°58' E 001°51'10 1.7
2020-Jul-08 05:30N 50°60' E 001°36'3 1.0
2020-Jul-08 03:01N 51°02' E 001°38'12 3.1
2020-Jul-07 22:58N 51°07' E 001°20'1212.6
2020-Jul-07 22:01N 51°03' E 001°38'9 6.2
2020-Jul-07 20:30N 50°58' E 001°51'2210.8
2020-Jul-07 18:30N 51°07' E 001°20'22 8.6
2020-Jul-07 16:00N 50°58' E 001°51'10 9.5
2020-Jul-07 15:00N 51°00' E 001°36'1212.2
2020-Jul-07 14:00N 51°07' E 001°20'7 7.1
2020-Jul-07 13:00N 51°06' E 001°31'15 9.9
2020-Jul-07 11:30N 50°58' E 001°51'0 0.0
2020-Jul-07 11:00N 50°58' E 001°51'3 0.8
2020-Jul-07 07:30N 50°58' E 001°47'9 4.4
2020-Jul-07 05:30N 51°02' E 001°34'917.5
2020-Jul-07 05:00N 51°07' E 001°22'3 2.2
2020-Jul-07 03:30N 51°06' E 001°27'714.7
2020-Jul-07 03:00N 51°02' E 001°37'8 2.5
2020-Jul-07 00:01N 51°05' E 001°26'1 0.7
2020-Jul-06 22:30N 51°07' E 001°26'2 0.5
2020-Jul-06 19:01N 51°06' E 001°24'3 6.0
2020-Jul-06 18:31N 51°07' E 001°20'6 6.4
2020-Jul-06 17:30N 51°05' E 001°30'816.7
2020-Jul-06 17:00N 51°00' E 001°41'7 1.3
2020-Jul-06 12:00N 50°58' E 001°51'0 0.2
2020-Jul-06 11:00N 50°58' E 001°51'1515.3
2020-Jul-06 10:01N 51°04' E 001°29'612.4
2020-Jul-06 09:30N 51°07' E 001°20'8 8.3
2020-Jul-06 08:31N 51°04' E 001°32'1020.3
2020-Jul-06 08:00N 50°58' E 001°45'11 3.2
2020-Jul-06 04:31N 51°02' E 001°29'3 2.0
2020-Jul-06 03:00N 51°05' E 001°28'1616.2
2020-Jul-06 02:00N 50°58' E 001°51'0 0.0
2020-Jul-06 01:30N 50°58' E 001°51'0 0.0
2020-Jul-05 22:00N 50°58' E 001°51'0 0.0
2020-Jul-05 20:00N 50°58' E 001°51'0 0.0
2020-Jul-05 16:00N 50°58' E 001°51'0 0.0
2020-Jul-05 15:31N 50°58' E 001°51'16 5.5
2020-Jul-05 12:31N 51°06' E 001°28'17 8.4
2020-Jul-05 10:30N 50°58' E 001°52'0 0.0
2020-Jul-05 05:30N 50°58' E 001°52'0 0.0
2020-Jul-05 04:00N 50°58' E 001°52'0 0.0
2020-Jul-05 03:00N 50°58' E 001°52'0 0.0
2020-Jul-05 02:00N 50°58' E 001°52'22 6.2
2020-Jul-04 22:28N 51°07' E 001°20'22 8.9
2020-Jul-04 20:00N 50°58' E 001°52'1 2.2
2020-Jul-04 19:30N 50°58' E 001°50'1716.8
2020-Jul-04 18:31N 51°05' E 001°26'1 0.2
2020-Jul-04 12:31N 51°07' E 001°27'1616.5
2020-Jul-04 11:30N 50°58' E 001°50'  

Dump ship's entire track history